sensor_id;sensor_type;location;lat;lon;timestamp;pressure;altitude;pressure_sealevel;temperature;humidity
72055;BME280;59936;51.490;5.436;2022-12-18T00:02:55;102482.63;;;-8.01;100.00
72055;BME280;59936;51.490;5.436;2022-12-18T00:07:57;102485.78;;;-8.18;100.00
72055;BME280;59936;51.490;5.436;2022-12-18T00:13:00;102487.66;;;-8.29;100.00
72055;BME280;59936;51.490;5.436;2022-12-18T00:18:02;102484.41;;;-8.13;100.00
72055;BME280;59936;51.490;5.436;2022-12-18T00:23:05;102473.22;;;-8.30;100.00
72055;BME280;59936;51.490;5.436;2022-12-18T00:28:09;102464.97;;;-8.41;100.00
72055;BME280;59936;51.490;5.436;2022-12-18T00:33:13;102445.50;;;-8.42;100.00
72055;BME280;59936;51.490;5.436;2022-12-18T00:38:15;102439.94;;;-7.79;100.00
72055;BME280;59936;51.490;5.436;2022-12-18T00:43:18;102445.13;;;-7.63;100.00
72055;BME280;59936;51.490;5.436;2022-12-18T00:48:20;102443.19;;;-7.67;100.00
72055;BME280;59936;51.490;5.436;2022-12-18T00:53:23;102443.47;;;-7.77;100.00
72055;BME280;59936;51.490;5.436;2022-12-18T00:58:26;102437.38;;;-7.94;100.00
72055;BME280;59936;51.490;5.436;2022-12-18T01:03:28;102444.25;;;-8.07;100.00
72055;BME280;59936;51.490;5.436;2022-12-18T01:08:29;102443.31;;;-8.22;100.00
72055;BME280;59936;51.490;5.436;2022-12-18T01:13:32;102461.50;;;-8.15;100.00
72055;BME280;59936;51.490;5.436;2022-12-18T01:18:34;102467.13;;;-8.05;100.00
72055;BME280;59936;51.490;5.436;2022-12-18T01:23:36;102466.00;;;-7.67;100.00
72055;BME280;59936;51.490;5.436;2022-12-18T01:28:40;102463.94;;;-7.59;100.00
72055;BME280;59936;51.490;5.436;2022-12-18T01:33:42;102463.19;;;-7.71;100.00
72055;BME280;59936;51.490;5.436;2022-12-18T01:38:44;102458.66;;;-7.77;100.00
72055;BME280;59936;51.490;5.436;2022-12-18T01:43:51;102455.84;;;-7.82;100.00
72055;BME280;59936;51.490;5.436;2022-12-18T01:48:57;102457.75;;;-7.93;100.00
72055;BME280;59936;51.490;5.436;2022-12-18T01:54:00;102452.34;;;-7.84;100.00
72055;BME280;59936;51.490;5.436;2022-12-18T01:59:06;102449.38;;;-7.77;100.00
72055;BME280;59936;51.490;5.436;2022-12-18T02:04:20;102446.56;;;-7.81;100.00
72055;BME280;59936;51.490;5.436;2022-12-18T02:09:28;102442.34;;;-7.96;100.00
72055;BME280;59936;51.490;5.436;2022-12-18T02:14:41;102436.91;;;-8.02;100.00
72055;BME280;59936;51.490;5.436;2022-12-18T02:20:01;102441.34;;;-7.69;100.00
72055;BME280;59936;51.490;5.436;2022-12-18T02:25:19;102438.19;;;-7.80;100.00
72055;BME280;59936;51.490;5.436;2022-12-18T02:30:36;102443.00;;;-7.85;100.00
72055;BME280;59936;51.490;5.436;2022-12-18T02:35:41;102435.59;;;-7.95;100.00
72055;BME280;59936;51.490;5.436;2022-12-18T02:40:45;102434.53;;;-8.14;100.00
72055;BME280;59936;51.490;5.436;2022-12-18T02:45:53;102431.06;;;-8.30;100.00
72055;BME280;59936;51.490;5.436;2022-12-18T02:51:01;102417.59;;;-8.29;100.00
72055;BME280;59936;51.490;5.436;2022-12-18T02:56:13;102412.16;;;-8.35;100.00
72055;BME280;59936;51.490;5.436;2022-12-18T03:01:26;102415.63;;;-8.48;100.00
72055;BME280;59936;51.490;5.436;2022-12-18T03:06:37;102412.81;;;-8.66;100.00
72055;BME280;59936;51.490;5.436;2022-12-18T03:11:45;102397.59;;;-8.53;100.00
72055;BME280;59936;51.490;5.436;2022-12-18T03:17:16;102395.50;;;-8.60;100.00
72055;BME280;59936;51.490;5.436;2022-12-18T03:22:22;102391.53;;;-8.70;100.00
72055;BME280;59936;51.490;5.436;2022-12-18T03:27:27;102397.06;;;-8.62;100.00
72055;BME280;59936;51.490;5.436;2022-12-18T03:32:38;102399.00;;;-8.71;100.00
72055;BME280;59936;51.490;5.436;2022-12-18T03:37:43;102402.72;;;-8.80;100.00
72055;BME280;59936;51.490;5.436;2022-12-18T03:42:48;102404.66;;;-8.62;100.00
72055;BME280;59936;51.490;5.436;2022-12-18T03:47:59;102402.31;;;-8.59;100.00
72055;BME280;59936;51.490;5.436;2022-12-18T03:53:11;102388.88;;;-8.71;100.00
72055;BME280;59936;51.490;5.436;2022-12-18T03:58:24;102382.69;;;-8.76;100.00
72055;BME280;59936;51.490;5.436;2022-12-18T04:03:29;102362.44;;;-8.76;100.00
72055;BME280;59936;51.490;5.436;2022-12-18T04:08:35;102354.38;;;-8.56;100.00
72055;BME280;59936;51.490;5.436;2022-12-18T04:13:38;102350.31;;;-8.54;100.00
72055;BME280;59936;51.490;5.436;2022-12-18T04:18:43;102353.53;;;-8.70;100.00
72055;BME280;59936;51.490;5.436;2022-12-18T04:23:44;102331.94;;;-8.49;100.00
72055;BME280;59936;51.490;5.436;2022-12-18T04:28:46;102342.63;;;-8.55;100.00
72055;BME280;59936;51.490;5.436;2022-12-18T04:33:49;102348.53;;;-8.55;100.00
72055;BME280;59936;51.490;5.436;2022-12-18T04:38:51;102352.84;;;-8.67;100.00
72055;BME280;59936;51.490;5.436;2022-12-18T04:43:53;102355.78;;;-8.74;100.00
72055;BME280;59936;51.490;5.436;2022-12-18T04:48:56;102369.03;;;-8.79;100.00
72055;BME280;59936;51.490;5.436;2022-12-18T04:53:58;102376.13;;;-8.59;100.00
72055;BME280;59936;51.490;5.436;2022-12-18T04:59:01;102377.13;;;-8.42;100.00
72055;BME280;59936;51.490;5.436;2022-12-18T05:04:04;102383.28;;;-8.52;100.00
72055;BME280;59936;51.490;5.436;2022-12-18T05:09:07;102375.28;;;-8.73;100.00
72055;BME280;59936;51.490;5.436;2022-12-18T05:14:08;102392.22;;;-8.86;100.00
72055;BME280;59936;51.490;5.436;2022-12-18T05:19:12;102388.53;;;-9.05;100.00
72055;BME280;59936;51.490;5.436;2022-12-18T05:24:13;102387.78;;;-9.17;100.00
72055;BME280;59936;51.490;5.436;2022-12-18T05:29:15;102373.06;;;-9.09;100.00
72055;BME280;59936;51.490;5.436;2022-12-18T05:34:18;102368.19;;;-8.93;100.00
72055;BME280;59936;51.490;5.436;2022-12-18T05:39:21;102381.16;;;-9.01;100.00
72055;BME280;59936;51.490;5.436;2022-12-18T05:44:23;102364.97;;;-9.03;100.00
72055;BME280;59936;51.490;5.436;2022-12-18T05:49:26;102361.56;;;-8.90;100.00
72055;BME280;59936;51.490;5.436;2022-12-18T05:54:28;102354.94;;;-8.88;100.00
72055;BME280;59936;51.490;5.436;2022-12-18T05:59:31;102352.00;;;-8.81;100.00
72055;BME280;59936;51.490;5.436;2022-12-18T06:04:34;102349.22;;;-8.99;100.00
72055;BME280;59936;51.490;5.436;2022-12-18T06:09:36;102343.97;;;-9.16;100.00
72055;BME280;59936;51.490;5.436;2022-12-18T06:14:37;102358.94;;;-9.06;100.00
72055;BME280;59936;51.490;5.436;2022-12-18T06:19:41;102359.13;;;-9.02;100.00
72055;BME280;59936;51.490;5.436;2022-12-18T06:24:42;102356.59;;;-8.89;100.00
72055;BME280;59936;51.490;5.436;2022-12-18T06:29:44;102364.00;;;-8.92;100.00
72055;BME280;59936;51.490;5.436;2022-12-18T06:34:47;102357.78;;;-9.11;100.00
72055;BME280;59936;51.490;5.436;2022-12-18T06:39:49;102356.22;;;-9.22;100.00
72055;BME280;59936;51.490;5.436;2022-12-18T06:44:51;102347.06;;;-9.34;100.00
72055;BME280;59936;51.490;5.436;2022-12-18T06:49:54;102343.00;;;-9.05;100.00
72055;BME280;59936;51.490;5.436;2022-12-18T06:54:55;102333.34;;;-8.97;100.00
72055;BME280;59936;51.490;5.436;2022-12-18T06:59:57;102331.81;;;-8.95;100.00
72055;BME280;59936;51.490;5.436;2022-12-18T07:05:00;102334.53;;;-8.63;100.00
72055;BME280;59936;51.490;5.436;2022-12-18T07:10:03;102337.66;;;-8.67;100.00
72055;BME280;59936;51.490;5.436;2022-12-18T07:15:06;102324.16;;;-8.53;100.00
72055;BME280;59936;51.490;5.436;2022-12-18T07:20:10;102314.31;;;-8.48;100.00
72055;BME280;59936;51.490;5.436;2022-12-18T07:25:12;102298.44;;;-8.45;100.00
72055;BME280;59936;51.490;5.436;2022-12-18T07:30:14;102279.22;;;-8.42;100.00
72055;BME280;59936;51.490;5.436;2022-12-18T07:35:17;102283.41;;;-8.42;100.00
72055;BME280;59936;51.490;5.436;2022-12-18T07:40:20;102278.19;;;-8.15;100.00
72055;BME280;59936;51.490;5.436;2022-12-18T07:45:22;102268.25;;;-8.12;100.00
72055;BME280;59936;51.490;5.436;2022-12-18T07:50:25;102255.16;;;-8.05;100.00
72055;BME280;59936;51.490;5.436;2022-12-18T07:55:26;102240.81;;;-7.89;100.00
72055;BME280;59936;51.490;5.436;2022-12-18T08:00:28;102234.06;;;-7.73;100.00
72055;BME280;59936;51.490;5.436;2022-12-18T08:05:32;102249.88;;;-7.63;100.00
72055;BME280;59936;51.490;5.436;2022-12-18T08:10:33;102251.06;;;-7.56;100.00
72055;BME280;59936;51.490;5.436;2022-12-18T08:15:35;102246.97;;;-7.54;100.00
72055;BME280;59936;51.490;5.436;2022-12-18T08:20:38;102247.00;;;-7.37;100.00
72055;BME280;59936;51.490;5.436;2022-12-18T08:25:40;102258.50;;;-7.12;100.00
72055;BME280;59936;51.490;5.436;2022-12-18T08:30:41;102253.56;;;-7.09;100.00
72055;BME280;59936;51.490;5.436;2022-12-18T08:35:45;102255.19;;;-6.94;100.00
72055;BME280;59936;51.490;5.436;2022-12-18T08:40:46;102257.09;;;-6.90;100.00
72055;BME280;59936;51.490;5.436;2022-12-18T08:45:48;102243.94;;;-6.83;100.00
72055;BME280;59936;51.490;5.436;2022-12-18T08:50:55;102223.13;;;-6.76;100.00
72055;BME280;59936;51.490;5.436;2022-12-18T08:55:57;102235.38;;;-6.68;100.00
72055;BME280;59936;51.490;5.436;2022-12-18T09:01:00;102226.69;;;-6.55;100.00
72055;BME280;59936;51.490;5.436;2022-12-18T09:06:05;102221.84;;;-6.51;100.00
72055;BME280;59936;51.490;5.436;2022-12-18T09:11:12;102239.50;;;-6.36;100.00
72055;BME280;59936;51.490;5.436;2022-12-18T09:16:16;102249.28;;;-6.27;100.00
72055;BME280;59936;51.490;5.436;2022-12-18T09:21:20;102259.31;;;-6.12;100.00
72055;BME280;59936;51.490;5.436;2022-12-18T09:26:23;102260.50;;;-6.05;100.00
72055;BME280;59936;51.490;5.436;2022-12-18T09:31:27;102240.56;;;-5.96;100.00
72055;BME280;59936;51.490;5.436;2022-12-18T09:36:30;102227.28;;;-5.90;100.00
72055;BME280;59936;51.490;5.436;2022-12-18T09:41:40;102222.72;;;-5.79;100.00
72055;BME280;59936;51.490;5.436;2022-12-18T09:46:49;102228.19;;;-5.71;100.00
72055;BME280;59936;51.490;5.436;2022-12-18T09:52:02;102215.44;;;-5.53;100.00
72055;BME280;59936;51.490;5.436;2022-12-18T09:57:13;102189.88;;;-5.36;100.00
72055;BME280;59936;51.490;5.436;2022-12-18T10:02:19;102206.94;;;-5.15;100.00
72055;BME280;59936;51.490;5.436;2022-12-18T10:07:27;102200.63;;;-5.24;100.00
72055;BME280;59936;51.490;5.436;2022-12-18T10:12:42;102204.28;;;-4.99;100.00
72055;BME280;59936;51.490;5.436;2022-12-18T10:17:58;102208.03;;;-4.91;100.00
72055;BME280;59936;51.490;5.436;2022-12-18T10:23:21;102212.03;;;-4.76;100.00
72055;BME280;59936;51.490;5.436;2022-12-18T10:28:31;102203.72;;;-4.72;100.00
72055;BME280;59936;51.490;5.436;2022-12-18T10:33:35;102190.44;;;-4.65;100.00
72055;BME280;59936;51.490;5.436;2022-12-18T10:38:39;102170.44;;;-4.55;100.00
72055;BME280;59936;51.490;5.436;2022-12-18T10:43:41;102155.81;;;-4.38;100.00
72055;BME280;59936;51.490;5.436;2022-12-18T10:48:52;102150.94;;;-4.33;100.00
72055;BME280;59936;51.490;5.436;2022-12-18T10:53:59;102151.06;;;-4.30;100.00
72055;BME280;59936;51.490;5.436;2022-12-18T10:59:05;102135.50;;;-4.15;100.00
72055;BME280;59936;51.490;5.436;2022-12-18T11:04:09;102121.31;;;-4.08;100.00
72055;BME280;59936;51.490;5.436;2022-12-18T11:09:21;102120.16;;;-3.94;100.00
72055;BME280;59936;51.490;5.436;2022-12-18T11:14:27;102132.22;;;-3.90;100.00
72055;BME280;59936;51.490;5.436;2022-12-18T11:19:33;102135.94;;;-3.81;100.00
72055;BME280;59936;51.490;5.436;2022-12-18T11:24:39;102124.28;;;-3.75;100.00
72055;BME280;59936;51.490;5.436;2022-12-18T11:29:41;102104.16;;;-3.67;100.00
72055;BME280;59936;51.490;5.436;2022-12-18T11:34:46;102102.41;;;-3.68;100.00
72055;BME280;59936;51.490;5.436;2022-12-18T11:39:57;102111.94;;;-3.64;100.00
72055;BME280;59936;51.490;5.436;2022-12-18T11:45:17;102095.75;;;-3.40;100.00
72055;BME280;59936;51.490;5.436;2022-12-18T11:50:32;102096.78;;;-3.34;100.00
72055;BME280;59936;51.490;5.436;2022-12-18T11:56:05;102090.31;;;-3.25;100.00
72055;BME280;59936;51.490;5.436;2022-12-18T12:01:37;102081.09;;;-3.21;100.00
72055;BME280;59936;51.490;5.436;2022-12-18T12:06:54;102081.00;;;-3.24;100.00
72055;BME280;59936;51.490;5.436;2022-12-18T12:12:15;102063.41;;;-3.15;100.00
72055;BME280;59936;51.490;5.436;2022-12-18T12:17:35;102053.09;;;-3.18;100.00
72055;BME280;59936;51.490;5.436;2022-12-18T12:22:49;102053.81;;;-2.96;100.00
72055;BME280;59936;51.490;5.436;2022-12-18T12:28:09;102050.34;;;-2.98;100.00
72055;BME280;59936;51.490;5.436;2022-12-18T12:33:29;102029.25;;;-2.92;100.00
72055;BME280;59936;51.490;5.436;2022-12-18T12:38:42;102030.41;;;-2.82;100.00
72055;BME280;59936;51.490;5.436;2022-12-18T12:43:48;102012.53;;;-2.82;100.00
72055;BME280;59936;51.490;5.436;2022-12-18T12:48:52;102003.34;;;-2.77;100.00
72055;BME280;59936;51.490;5.436;2022-12-18T12:53:58;101995.66;;;-2.77;100.00
72055;BME280;59936;51.490;5.436;2022-12-18T12:59:13;101992.38;;;-2.73;100.00
72055;BME280;59936;51.490;5.436;2022-12-18T13:04:36;101989.84;;;-2.73;100.00
72055;BME280;59936;51.490;5.436;2022-12-18T13:10:22;101978.16;;;-2.65;100.00
72055;BME280;59936;51.490;5.436;2022-12-18T13:15:33;101968.19;;;-2.55;100.00
72055;BME280;59936;51.490;5.436;2022-12-18T13:20:40;101961.16;;;-2.64;100.00
72055;BME280;59936;51.490;5.436;2022-12-18T13:25:44;101959.69;;;-2.56;100.00
72055;BME280;59936;51.490;5.436;2022-12-18T13:30:50;101973.50;;;-2.49;100.00
72055;BME280;59936;51.490;5.436;2022-12-18T13:36:01;101970.13;;;-2.48;100.00
72055;BME280;59936;51.490;5.436;2022-12-18T13:41:26;101969.44;;;-2.42;100.00
72055;BME280;59936;51.490;5.436;2022-12-18T13:46:42;101961.78;;;-2.42;100.00
72055;BME280;59936;51.490;5.436;2022-12-18T13:51:48;101945.78;;;-2.35;100.00
72055;BME280;59936;51.490;5.436;2022-12-18T13:56:51;101938.94;;;-2.36;100.00
72055;BME280;59936;51.490;5.436;2022-12-18T14:01:56;101944.13;;;-2.35;100.00
72055;BME280;59936;51.490;5.436;2022-12-18T14:07:02;101948.50;;;-2.30;100.00
72055;BME280;59936;51.490;5.436;2022-12-18T14:12:14;101935.00;;;-2.25;100.00
72055;BME280;59936;51.490;5.436;2022-12-18T14:17:37;101939.25;;;-2.25;100.00
72055;BME280;59936;51.490;5.436;2022-12-18T14:22:42;101941.13;;;-2.20;100.00
72055;BME280;59936;51.490;5.436;2022-12-18T14:27:48;101936.78;;;-2.22;100.00
72055;BME280;59936;51.490;5.436;2022-12-18T14:33:06;101927.59;;;-2.15;100.00
72055;BME280;59936;51.490;5.436;2022-12-18T14:38:20;101930.97;;;-2.16;100.00
72055;BME280;59936;51.490;5.436;2022-12-18T14:43:25;101937.13;;;-2.10;100.00
72055;BME280;59936;51.490;5.436;2022-12-18T14:48:36;101923.47;;;-2.10;100.00
72055;BME280;59936;51.490;5.436;2022-12-18T14:53:42;101931.91;;;-2.13;100.00
72055;BME280;59936;51.490;5.436;2022-12-18T14:58:47;101937.13;;;-2.10;100.00
72055;BME280;59936;51.490;5.436;2022-12-18T15:03:53;101933.69;;;-2.10;100.00
72055;BME280;59936;51.490;5.436;2022-12-18T15:08:57;101925.16;;;-2.11;100.00
72055;BME280;59936;51.490;5.436;2022-12-18T15:14:24;101919.13;;;-2.13;100.00
72055;BME280;59936;51.490;5.436;2022-12-18T15:19:37;101909.69;;;-2.15;100.00
72055;BME280;59936;51.490;5.436;2022-12-18T15:24:41;101909.63;;;-2.17;100.00
72055;BME280;59936;51.490;5.436;2022-12-18T15:29:43;101900.47;;;-2.09;100.00
72055;BME280;59936;51.490;5.436;2022-12-18T15:35:13;101898.78;;;-2.08;100.00
72055;BME280;59936;51.490;5.436;2022-12-18T15:40:19;101897.91;;;-2.09;100.00
72055;BME280;59936;51.490;5.436;2022-12-18T15:45:21;101892.91;;;-2.05;100.00
72055;BME280;59936;51.490;5.436;2022-12-18T15:50:25;101885.31;;;-2.02;100.00
72055;BME280;59936;51.490;5.436;2022-12-18T15:55:27;101873.31;;;-2.03;100.00
72055;BME280;59936;51.490;5.436;2022-12-18T16:00:46;101867.31;;;-2.05;100.00
72055;BME280;59936;51.490;5.436;2022-12-18T16:05:49;101871.78;;;-1.98;100.00
72055;BME280;59936;51.490;5.436;2022-12-18T16:10:52;101871.69;;;-2.01;100.00
72055;BME280;59936;51.490;5.436;2022-12-18T16:15:54;101881.25;;;-1.94;100.00
72055;BME280;59936;51.490;5.436;2022-12-18T16:20:59;101860.81;;;-1.92;100.00
72055;BME280;59936;51.490;5.436;2022-12-18T16:26:01;101841.94;;;-1.96;100.00
72055;BME280;59936;51.490;5.436;2022-12-18T16:31:04;101830.16;;;-1.91;100.00
72055;BME280;59936;51.490;5.436;2022-12-18T16:36:08;101837.09;;;-1.87;100.00
72055;BME280;59936;51.490;5.436;2022-12-18T16:41:17;101825.09;;;-1.88;100.00
72055;BME280;59936;51.490;5.436;2022-12-18T16:46:32;101820.03;;;-1.86;100.00
72055;BME280;59936;51.490;5.436;2022-12-18T16:51:35;101813.06;;;-1.92;100.00
72055;BME280;59936;51.490;5.436;2022-12-18T16:56:37;101808.84;;;-1.90;100.00
72055;BME280;59936;51.490;5.436;2022-12-18T17:01:39;101804.63;;;-1.88;100.00
72055;BME280;59936;51.490;5.436;2022-12-18T17:06:44;101808.03;;;-1.89;100.00
72055;BME280;59936;51.490;5.436;2022-12-18T17:11:53;101801.41;;;-1.81;100.00
72055;BME280;59936;51.490;5.436;2022-12-18T17:16:55;101799.69;;;-1.82;100.00
72055;BME280;59936;51.490;5.436;2022-12-18T17:21:58;101805.72;;;-1.78;100.00
72055;BME280;59936;51.490;5.436;2022-12-18T17:27:00;101815.13;;;-1.78;100.00
72055;BME280;59936;51.490;5.436;2022-12-18T17:32:02;101810.78;;;-1.81;100.00
72055;BME280;59936;51.490;5.436;2022-12-18T17:37:05;101806.59;;;-1.77;100.00
72055;BME280;59936;51.490;5.436;2022-12-18T17:42:07;101823.81;;;-1.72;100.00
72055;BME280;59936;51.490;5.436;2022-12-18T17:47:11;101810.28;;;-1.66;100.00
72055;BME280;59936;51.490;5.436;2022-12-18T17:52:14;101818.94;;;-1.61;100.00
72055;BME280;59936;51.490;5.436;2022-12-18T17:57:17;101818.25;;;-1.53;100.00
72055;BME280;59936;51.490;5.436;2022-12-18T18:02:19;101811.38;;;-1.56;100.00
72055;BME280;59936;51.490;5.436;2022-12-18T18:07:22;101814.09;;;-1.50;100.00
72055;BME280;59936;51.490;5.436;2022-12-18T18:12:23;101809.69;;;-1.54;100.00
72055;BME280;59936;51.490;5.436;2022-12-18T18:17:43;101813.13;;;-1.53;100.00
72055;BME280;59936;51.490;5.436;2022-12-18T18:22:46;101799.44;;;-1.54;100.00
72055;BME280;59936;51.490;5.436;2022-12-18T18:27:48;101790.00;;;-1.57;100.00
72055;BME280;59936;51.490;5.436;2022-12-18T18:32:49;101799.53;;;-1.51;100.00
72055;BME280;59936;51.490;5.436;2022-12-18T18:37:54;101800.41;;;-1.50;100.00
72055;BME280;59936;51.490;5.436;2022-12-18T18:42:56;101794.44;;;-1.49;100.00
72055;BME280;59936;51.490;5.436;2022-12-18T18:47:59;101796.22;;;-1.47;100.00
72055;BME280;59936;51.490;5.436;2022-12-18T18:53:02;101798.97;;;-1.39;100.00
72055;BME280;59936;51.490;5.436;2022-12-18T18:58:03;101805.09;;;-1.32;100.00
72055;BME280;59936;51.490;5.436;2022-12-18T19:03:05;101808.56;;;-1.28;100.00
72055;BME280;59936;51.490;5.436;2022-12-18T19:08:08;101799.16;;;-1.30;100.00
72055;BME280;59936;51.490;5.436;2022-12-18T19:13:11;101795.84;;;-1.25;100.00
72055;BME280;59936;51.490;5.436;2022-12-18T19:18:25;101792.44;;;-1.26;100.00
72055;BME280;59936;51.490;5.436;2022-12-18T19:23:29;101794.13;;;-1.26;100.00
72055;BME280;59936;51.490;5.436;2022-12-18T19:28:33;101807.75;;;-1.27;100.00
72055;BME280;59936;51.490;5.436;2022-12-18T19:33:36;101808.47;;;-1.33;100.00
72055;BME280;59936;51.490;5.436;2022-12-18T19:38:41;101809.13;;;-1.42;100.00
72055;BME280;59936;51.490;5.436;2022-12-18T19:43:44;101801.44;;;-1.42;100.00
72055;BME280;59936;51.490;5.436;2022-12-18T19:48:48;101800.53;;;-1.44;100.00
72055;BME280;59936;51.490;5.436;2022-12-18T19:53:52;101805.59;;;-1.47;100.00
72055;BME280;59936;51.490;5.436;2022-12-18T19:58:55;101803.03;;;-1.47;100.00
72055;BME280;59936;51.490;5.436;2022-12-18T20:03:57;101807.44;;;-1.41;100.00
72055;BME280;59936;51.490;5.436;2022-12-18T20:09:03;101803.00;;;-1.49;100.00
72055;BME280;59936;51.490;5.436;2022-12-18T20:14:06;101803.84;;;-1.48;100.00
72055;BME280;59936;51.490;5.436;2022-12-18T20:19:09;101792.75;;;-1.49;100.00
72055;BME280;59936;51.490;5.436;2022-12-18T20:24:13;101799.53;;;-1.51;100.00
72055;BME280;59936;51.490;5.436;2022-12-18T20:29:16;101792.75;;;-1.49;100.00
72055;BME280;59936;51.490;5.436;2022-12-18T20:34:17;101800.50;;;-1.47;100.00
72055;BME280;59936;51.490;5.436;2022-12-18T20:39:20;101805.66;;;-1.44;100.00
72055;BME280;59936;51.490;5.436;2022-12-18T20:44:24;101788.56;;;-1.45;100.00
72055;BME280;59936;51.490;5.436;2022-12-18T20:49:27;101782.59;;;-1.46;100.00
72055;BME280;59936;51.490;5.436;2022-12-18T20:54:30;101774.94;;;-1.44;100.00
72055;BME280;59936;51.490;5.436;2022-12-18T20:59:33;101778.31;;;-1.45;100.00
72055;BME280;59936;51.490;5.436;2022-12-18T21:04:35;101766.44;;;-1.43;100.00
72055;BME280;59936;51.490;5.436;2022-12-18T21:09:39;101757.91;;;-1.42;100.00
72055;BME280;59936;51.490;5.436;2022-12-18T21:14:41;101754.44;;;-1.44;100.00
72055;BME280;59936;51.490;5.436;2022-12-18T21:19:44;101749.38;;;-1.41;100.00
72055;BME280;59936;51.490;5.436;2022-12-18T21:24:47;101739.22;;;-1.38;100.00
72055;BME280;59936;51.490;5.436;2022-12-18T21:29:49;101738.38;;;-1.37;100.00
72055;BME280;59936;51.490;5.436;2022-12-18T21:34:51;101732.56;;;-1.30;100.00
72055;BME280;59936;51.490;5.436;2022-12-18T21:39:54;101722.38;;;-1.26;100.00
72055;BME280;59936;51.490;5.436;2022-12-18T21:44:56;101711.31;;;-1.25;100.00
72055;BME280;59936;51.490;5.436;2022-12-18T21:49:58;101708.75;;;-1.25;100.00
72055;BME280;59936;51.490;5.436;2022-12-18T21:55:02;101707.97;;;-1.21;100.00
72055;BME280;59936;51.490;5.436;2022-12-18T22:00:06;101707.16;;;-1.20;100.00
72055;BME280;59936;51.490;5.436;2022-12-18T22:05:11;101689.44;;;-1.09;100.00
72055;BME280;59936;51.490;5.436;2022-12-18T22:10:14;101683.41;;;-1.11;100.00
72055;BME280;59936;51.490;5.436;2022-12-18T22:15:16;101664.66;;;-1.09;100.00
72055;BME280;59936;51.490;5.436;2022-12-18T22:20:18;101660.53;;;-1.02;100.00
72055;BME280;59936;51.490;5.436;2022-12-18T22:25:21;101645.19;;;-1.00;100.00
72055;BME280;59936;51.490;5.436;2022-12-18T22:30:23;101634.09;;;-0.99;100.00
72055;BME280;59936;51.490;5.436;2022-12-18T22:35:24;101626.50;;;-0.93;100.00
72055;BME280;59936;51.490;5.436;2022-12-18T22:40:28;101606.91;;;-0.91;100.00
72055;BME280;59936;51.490;5.436;2022-12-18T22:45:30;101593.44;;;-0.81;100.00
72055;BME280;59936;51.490;5.436;2022-12-18T22:50:31;101597.09;;;-0.65;100.00
72055;BME280;59936;51.490;5.436;2022-12-18T22:55:35;101598.13;;;-0.53;100.00
72055;BME280;59936;51.490;5.436;2022-12-18T23:00:36;101596.41;;;-0.54;100.00
72055;BME280;59936;51.490;5.436;2022-12-18T23:05:38;101593.88;;;-0.53;100.00
72055;BME280;59936;51.490;5.436;2022-12-18T23:10:42;101595.72;;;-0.42;100.00
72055;BME280;59936;51.490;5.436;2022-12-18T23:15:44;101583.06;;;-0.33;100.00
72055;BME280;59936;51.490;5.436;2022-12-18T23:20:47;101565.22;;;-0.23;100.00
72055;BME280;59936;51.490;5.436;2022-12-18T23:25:59;101541.44;;;-0.10;100.00
72055;BME280;59936;51.490;5.436;2022-12-18T23:31:04;101541.44;;;-0.13;100.00
72055;BME280;59936;51.490;5.436;2022-12-18T23:36:07;101537.91;;;-0.18;100.00
72055;BME280;59936;51.490;5.436;2022-12-18T23:41:14;101533.81;;;-0.05;100.00
72055;BME280;59936;51.490;5.436;2022-12-18T23:46:19;101529.63;;;0.00;100.00
72055;BME280;59936;51.490;5.436;2022-12-18T23:51:24;101515.97;;;0.03;100.00
72055;BME280;59936;51.490;5.436;2022-12-18T23:56:29;101505.66;;;-0.01;100.00
